createdAt,value
2023-05-19T00:01:19.450Z,99797.81
2023-05-19T00:03:54.420Z,99798.82
2023-05-19T00:06:31.832Z,99798.68
2023-05-19T00:09:00.893Z,99802.91
2023-05-19T00:11:28.349Z,99804.61
2023-05-19T00:13:56.580Z,99806.73
2023-05-19T00:16:24.934Z,99808.85
2023-05-19T00:18:53.450Z,99809.17
2023-05-19T00:21:22.830Z,99806.96
2023-05-19T00:23:49.871Z,99809.39
2023-05-19T00:26:16.874Z,99809.05
2023-05-19T00:28:50.291Z,99804.52
2023-05-19T00:31:17.353Z,99801.27
2023-05-19T00:33:44.542Z,99802.39
2023-05-19T00:36:11.501Z,99804.05
2023-05-19T00:38:38.778Z,99801.89
2023-05-19T00:41:06.202Z,99798.09
2023-05-19T00:43:36.429Z,99798.76
2023-05-19T00:46:03.619Z,99802.80
2023-05-19T00:48:30.858Z,99804.89
2023-05-19T00:51:04.870Z,99803.14
2023-05-19T00:53:34.815Z,99804.88
2023-05-19T00:56:02.438Z,99807.41
2023-05-19T00:58:30.703Z,99802.71
2023-05-19T01:01:03.859Z,99804.90
2023-05-19T01:03:32.600Z,99804.34
2023-05-19T01:06:05.058Z,99809.67
2023-05-19T01:08:35.765Z,99815.85
2023-05-19T01:11:02.840Z,99816.98
2023-05-19T01:13:30.396Z,99817.50
2023-05-19T01:16:14.500Z,99816.48
2023-05-19T01:18:46.418Z,99812.47
2023-05-19T01:21:19.402Z,99809.88
2023-05-19T01:24:06.801Z,99803.28
2023-05-19T01:27:11.620Z,99801.47
2023-05-19T01:30:00.541Z,99806.02
2023-05-19T01:32:27.579Z,99808.55
2023-05-19T01:34:55.301Z,99809.64
2023-05-19T01:37:23.100Z,99810.42
2023-05-19T01:39:50.069Z,99818.66
2023-05-19T01:42:17.147Z,99821.50
2023-05-19T01:44:44.441Z,99815.34
2023-05-19T01:47:11.431Z,99814.02
2023-05-19T01:49:38.440Z,99815.58
2023-05-19T01:52:06.025Z,99809.00
2023-05-19T01:54:33.559Z,99810.92
2023-05-19T01:57:06.617Z,99809.69
2023-05-19T02:00:12.775Z,99811.88
2023-05-19T02:02:59.358Z,99803.77
2023-05-19T02:05:36.058Z,99811.24
2023-05-19T02:08:13.791Z,99813.88
2023-05-19T02:10:43.712Z,99813.48
2023-05-19T02:13:11.578Z,99809.70
2023-05-19T02:15:40.636Z,99812.09
2023-05-19T02:18:10.263Z,99813.23
2023-05-19T02:20:38.810Z,99815.97
2023-05-19T02:23:07.181Z,99821.34
2023-05-19T02:25:34.913Z,99821.81
2023-05-19T02:28:01.955Z,99821.37
2023-05-19T02:30:31.956Z,99825.27
2023-05-19T02:33:00.903Z,99829.59
2023-05-19T02:35:28.274Z,99823.19
2023-05-19T02:37:55.231Z,99824.61
2023-05-19T02:40:22.410Z,99827.58
2023-05-19T02:42:49.835Z,99830.41
2023-05-19T02:45:16.930Z,99838.48
2023-05-19T02:47:43.997Z,99838.77
2023-05-19T02:50:11.199Z,99843.09
2023-05-19T02:52:38.153Z,99847.27
2023-05-19T02:55:05.498Z,99845.45
2023-05-19T02:57:33.413Z,99845.91
2023-05-19T03:00:01.007Z,99846.42
2023-05-19T03:02:28.133Z,99852.42
2023-05-19T03:04:55.331Z,99854.36
2023-05-19T03:07:25.469Z,99857.59
2023-05-19T03:09:53.163Z,99864.59
2023-05-19T03:12:20.337Z,99864.63
2023-05-19T03:14:47.737Z,99871.59
2023-05-19T03:17:14.724Z,99874.61
2023-05-19T03:19:42.301Z,99873.63
2023-05-19T03:22:09.225Z,99876.20
2023-05-19T03:24:36.613Z,99878.27
2023-05-19T03:27:05.996Z,99879.60
2023-05-19T03:29:33.288Z,99877.07
2023-05-19T03:32:00.488Z,99873.33
2023-05-19T03:34:27.601Z,99878.76
2023-05-19T03:36:57.102Z,99883.44
2023-05-19T03:39:24.334Z,99874.56
2023-05-19T03:41:51.685Z,99871.52
2023-05-19T03:44:19.177Z,99877.21
2023-05-19T03:46:46.298Z,99880.48
2023-05-19T03:49:37.489Z,99886.45
2023-05-19T03:52:04.526Z,99890.92
2023-05-19T03:54:36.316Z,99891.97
2023-05-19T03:57:03.571Z,99895.87
2023-05-19T03:59:31.464Z,99897.34
2023-05-19T04:01:58.569Z,99899.67
2023-05-19T04:04:26.839Z,99903.80
2023-05-19T04:06:53.926Z,99905.75
2023-05-19T04:09:24.077Z,99906.80
2023-05-19T04:11:51.064Z,99904.84
2023-05-19T04:14:19.686Z,99904.38
2023-05-19T04:16:46.647Z,99911.25
2023-05-19T04:19:13.772Z,99910.91
2023-05-19T04:21:41.091Z,99910.57
2023-05-19T04:24:08.170Z,99917.29
2023-05-19T04:26:35.370Z,99920.29
2023-05-19T04:29:04.897Z,99922.45
2023-05-19T04:31:34.649Z,99925.27
2023-05-19T04:34:02.180Z,99918.63
2023-05-19T04:36:29.607Z,99918.95
2023-05-19T04:39:03.015Z,99921.40
2023-05-19T04:41:30.807Z,99927.23
2023-05-19T04:43:58.507Z,99925.39
2023-05-19T04:46:26.834Z,99923.98
2023-05-19T04:48:57.273Z,99922.47
2023-05-19T04:51:29.832Z,99927.69
2023-05-19T04:53:58.502Z,99930.62
2023-05-19T04:56:27.560Z,99940.60
2023-05-19T04:58:55.214Z,99931.58
2023-05-19T05:01:26.490Z,99921.21
2023-05-19T05:03:59.264Z,99925.05
2023-05-19T05:06:26.695Z,99932.87
2023-05-19T05:08:54.216Z,99926.87
2023-05-19T05:11:22.440Z,99931.07
2023-05-19T05:13:50.317Z,99924.83
2023-05-19T05:16:17.648Z,99933.58
2023-05-19T05:18:47.013Z,99935.38
2023-05-19T05:21:14.392Z,99938.20
2023-05-19T05:23:41.802Z,99951.39
2023-05-19T05:26:11.555Z,99958.49
2023-05-19T05:28:38.793Z,99943.58
2023-05-19T05:31:06.072Z,99960.52
2023-05-19T05:33:33.125Z,99961.66
2023-05-19T05:36:00.316Z,99950.41
2023-05-19T05:38:28.461Z,99956.29
2023-05-19T05:40:55.680Z,99953.58
2023-05-19T05:43:22.866Z,99954.86
2023-05-19T05:45:54.542Z,99955.10
2023-05-19T05:48:22.344Z,99960.52
2023-05-19T05:50:50.480Z,99963.86
2023-05-19T05:53:20.538Z,99958.70
2023-05-19T05:55:50.264Z,99970.75
2023-05-19T05:58:17.550Z,99979.55
2023-05-19T06:00:45.402Z,99977.62
2023-05-19T06:03:13.619Z,99979.48
2023-05-19T06:05:41.003Z,99979.81
2023-05-19T06:08:08.717Z,99989.06
2023-05-19T06:10:37.017Z,99980.57
2023-05-19T06:13:05.757Z,99988.34
2023-05-19T06:15:32.840Z,99985.89
2023-05-19T06:18:13.603Z,99983.61
2023-05-19T06:20:40.579Z,99985.23
2023-05-19T06:23:07.621Z,99988.66
2023-05-19T06:25:36.088Z,99987.80
2023-05-19T06:28:03.713Z,99986.45
2023-05-19T06:30:31.315Z,99994.37
2023-05-19T06:33:21.142Z,99999.60
2023-05-19T06:35:48.126Z,100003.19
2023-05-19T06:38:15.381Z,100013.46
2023-05-19T06:40:42.560Z,100019.33
2023-05-19T06:43:09.858Z,100020.45
2023-05-19T06:45:57.120Z,100027.30
2023-05-19T06:48:25.227Z,100029.30
2023-05-19T06:50:52.667Z,100031.90
2023-05-19T06:53:20.046Z,100029.77
2023-05-19T06:55:58.583Z,100032.80
2023-05-19T06:58:28.590Z,100039.13
2023-05-19T07:00:56.041Z,100040.16
2023-05-19T07:03:24.981Z,100039.30
2023-05-19T07:05:52.331Z,100020.45
2023-05-19T07:08:19.429Z,100013.40
2023-05-19T07:10:46.596Z,100010.90
2023-05-19T07:13:13.939Z,100010.88
2023-05-19T07:15:41.338Z,100018.36
2023-05-19T07:18:08.371Z,100021.39
2023-05-19T07:20:35.927Z,100019.98
2023-05-19T07:23:02.948Z,100023.58
2023-05-19T07:25:30.783Z,100023.54
2023-05-19T07:27:57.899Z,100017.71
2023-05-19T07:30:25.285Z,100020.22
2023-05-19T07:32:52.325Z,100025.58
2023-05-19T07:35:20.563Z,100025.61
2023-05-19T07:37:47.696Z,100028.19
2023-05-19T07:40:14.731Z,100028.83
2023-05-19T07:42:41.825Z,100037.48
2023-05-19T07:45:09.410Z,100045.04
2023-05-19T07:47:36.603Z,100031.19
2023-05-19T07:50:04.157Z,100037.27
2023-05-19T07:52:31.348Z,100030.92
2023-05-19T07:54:59.341Z,100040.45
2023-05-19T07:57:26.409Z,100043.27
2023-05-19T07:59:53.374Z,100039.30
2023-05-19T08:02:21.211Z,100037.61
2023-05-19T08:04:49.605Z,100039.83
2023-05-19T08:07:16.703Z,100047.08
2023-05-19T08:09:43.745Z,100044.40
2023-05-19T08:12:11.014Z,100051.29
2023-05-19T08:14:38.101Z,100049.45
2023-05-19T08:17:05.131Z,100035.95
2023-05-19T08:19:33.534Z,100036.28
2023-05-19T08:22:01.466Z,100035.70
2023-05-19T08:24:33.049Z,100040.42
2023-05-19T08:27:00.110Z,100044.09
2023-05-19T08:29:27.255Z,100041.94
2023-05-19T08:31:54.297Z,100054.30
2023-05-19T08:34:21.306Z,100063.47
2023-05-19T08:36:48.802Z,100062.36
2023-05-19T08:39:18.394Z,100069.85
2023-05-19T08:41:45.624Z,100077.35
2023-05-19T08:44:12.587Z,100082.83
2023-05-19T08:46:39.664Z,100086.52
2023-05-19T08:49:11.456Z,100092.09
2023-05-19T08:51:50.595Z,100096.70
2023-05-19T08:54:18.701Z,100100.34
2023-05-19T08:56:45.815Z,100097.77
2023-05-19T08:59:14.191Z,100102.71
2023-05-19T09:01:49.693Z,100104.20
2023-05-19T09:04:17.021Z,100105.05
2023-05-19T09:06:45.346Z,100101.70
2023-05-19T09:09:12.728Z,100103.98
2023-05-19T09:11:39.815Z,100107.01
2023-05-19T09:14:06.849Z,100108.90
2023-05-19T09:16:34.146Z,100107.06
2023-05-19T09:19:01.427Z,100108.77
2023-05-19T09:21:31.696Z,100113.04
2023-05-19T09:23:59.482Z,100112.67
2023-05-19T09:26:35.769Z,100118.73
2023-05-19T09:29:03.385Z,100119.30
2023-05-19T09:31:33.004Z,100110.46
2023-05-19T09:34:00.222Z,100111.31
2023-05-19T09:36:29.840Z,100112.84
2023-05-19T09:38:56.977Z,100109.03
2023-05-19T09:41:23.978Z,100094.70
2023-05-19T09:43:55.065Z,100098.28
2023-05-19T09:46:28.569Z,100093.48
2023-05-19T09:48:58.886Z,100090.08
2023-05-19T09:51:25.876Z,100084.09
2023-05-19T09:53:53.686Z,100082.55
2023-05-19T09:56:23.887Z,100078.17
2023-05-19T09:58:50.875Z,100074.81
2023-05-19T10:01:18.007Z,100076.48
2023-05-19T10:03:45.036Z,100084.41
2023-05-19T10:06:12.062Z,100078.96
2023-05-19T10:08:39.821Z,100083.98
2023-05-19T10:11:07.154Z,100090.41
2023-05-19T10:13:36.051Z,100077.88
2023-05-19T10:16:03.768Z,100091.10
2023-05-19T10:18:30.864Z,100099.79
2023-05-19T10:20:58.175Z,100104.23
2023-05-19T10:23:25.628Z,100105.02
2023-05-19T10:25:52.701Z,100105.18
2023-05-19T10:28:21.230Z,100099.38
2023-05-19T10:30:50.005Z,100095.38
2023-05-19T10:33:18.315Z,100098.58
2023-05-19T10:35:57.664Z,100097.67
2023-05-19T10:38:34.413Z,100101.11
2023-05-19T10:41:41.210Z,100103.38
2023-05-19T10:44:14.403Z,100092.97
2023-05-19T10:46:43.266Z,100103.10
2023-05-19T10:49:10.363Z,100105.58
2023-05-19T10:51:37.403Z,100104.59
2023-05-19T10:54:11.014Z,100108.94
2023-05-19T10:56:42.519Z,100096.69
2023-05-19T10:59:09.605Z,100105.85
2023-05-19T11:01:38.500Z,100110.45
2023-05-19T11:04:14.104Z,100116.66
2023-05-19T11:06:41.889Z,100115.16
2023-05-19T11:09:08.837Z,100113.64
2023-05-19T11:11:48.178Z,100097.79
2023-05-19T11:14:19.398Z,100087.19
2023-05-19T11:16:51.488Z,100090.29
2023-05-19T11:19:48.371Z,100090.29
2023-05-19T11:22:15.501Z,100113.73
2023-05-19T11:24:53.511Z,100116.88
2023-05-19T11:27:20.468Z,100095.63
2023-05-19T11:29:48.587Z,100111.77
2023-05-19T11:32:15.781Z,100112.27
2023-05-19T11:34:46.990Z,100110.98
2023-05-19T11:37:14.081Z,100096.17
2023-05-19T11:39:41.461Z,100092.75
2023-05-19T11:42:11.829Z,100093.17
2023-05-19T11:44:41.315Z,100096.52
2023-05-19T11:47:08.728Z,100098.90
2023-05-19T11:49:36.003Z,100105.21
2023-05-19T11:52:03.779Z,100119.67
2023-05-19T11:54:36.782Z,100125.83
2023-05-19T11:57:04.076Z,100130.37
2023-05-19T11:59:36.247Z,100134.82
2023-05-19T12:02:18.394Z,100139.34
2023-05-19T12:04:46.112Z,100136.04
2023-05-19T12:07:14.034Z,100137.00
2023-05-19T12:09:41.039Z,100135.84
2023-05-19T12:12:08.589Z,100134.13
2023-05-19T12:14:37.074Z,100123.77
2023-05-19T12:17:14.227Z,100114.70
2023-05-19T12:19:44.704Z,100103.52
2023-05-19T12:22:11.730Z,100110.65
2023-05-19T12:24:39.128Z,100098.23
2023-05-19T12:27:07.749Z,100114.98
2023-05-19T12:29:34.864Z,100120.52
2023-05-19T12:32:01.941Z,100111.42
2023-05-19T12:34:29.264Z,100115.50
2023-05-19T12:36:56.241Z,100108.43
2023-05-19T12:39:24.503Z,100121.17
2023-05-19T12:41:51.422Z,100127.05
2023-05-19T12:44:18.576Z,100121.81
2023-05-19T12:46:45.527Z,100114.25
2023-05-19T12:49:12.768Z,100128.74
2023-05-19T12:51:40.490Z,100129.55
2023-05-19T12:54:08.236Z,100126.97
2023-05-19T12:56:35.379Z,100123.45
2023-05-19T12:59:02.417Z,100128.20
2023-05-19T13:01:29.629Z,100126.08
2023-05-19T13:03:57.374Z,100122.26
2023-05-19T13:06:24.603Z,100122.44
2023-05-19T13:08:51.602Z,100118.71
2023-05-19T13:11:19.477Z,100122.17
2023-05-19T13:13:47.324Z,100120.38
2023-05-19T13:16:14.305Z,100121.48
2023-05-19T13:18:41.358Z,100117.52
2023-05-19T13:21:08.393Z,100095.17
2023-05-19T13:23:35.625Z,100092.64
2023-05-19T13:26:05.125Z,100096.16
2023-05-19T13:28:32.160Z,100104.64
2023-05-19T13:30:59.620Z,100088.14
2023-05-19T13:33:26.785Z,100083.64
2023-05-19T13:35:54.248Z,100084.04
2023-05-19T13:38:21.210Z,100082.65
2023-05-19T13:40:48.169Z,100087.44
2023-05-19T13:43:15.350Z,100098.98
2023-05-19T13:45:44.560Z,100102.36
2023-05-19T13:48:12.294Z,100094.52
2023-05-19T13:50:39.511Z,100086.98
2023-05-19T13:53:06.672Z,100100.62
2023-05-19T13:55:33.746Z,100095.45
2023-05-19T13:58:00.772Z,100098.45
2023-05-19T14:00:27.878Z,100114.17
2023-05-19T14:02:55.262Z,100115.70
2023-05-19T14:05:22.378Z,100117.65
2023-05-19T14:07:49.835Z,100123.07
2023-05-19T14:10:16.854Z,100123.66
2023-05-19T14:13:04.855Z,100120.92
2023-05-19T14:15:32.489Z,100121.61
2023-05-19T14:17:59.488Z,100128.73
2023-05-19T14:20:29.199Z,100128.89
2023-05-19T14:22:56.519Z,100120.36
2023-05-19T14:25:23.501Z,100110.25
2023-05-19T14:27:50.816Z,100100.48
2023-05-19T14:30:17.779Z,100100.63
2023-05-19T14:32:44.936Z,100085.80
2023-05-19T14:35:12.135Z,100076.18
2023-05-19T14:37:39.066Z,100078.41
2023-05-19T14:40:07.029Z,100076.84
2023-05-19T14:42:34.018Z,100077.94
2023-05-19T14:45:01.079Z,100070.39
2023-05-19T14:47:28.208Z,100067.79
2023-05-19T14:49:55.660Z,100066.25
2023-05-19T14:52:23.056Z,100073.43
2023-05-19T14:54:50.058Z,100068.05
2023-05-19T14:57:17.045Z,100076.97
2023-05-19T14:59:43.982Z,100080.65
2023-05-19T15:02:12.102Z,100087.55
2023-05-19T15:04:39.670Z,100082.88
2023-05-19T15:07:10.262Z,100074.23
2023-05-19T15:09:38.275Z,100071.56
2023-05-19T15:12:05.859Z,100073.73
2023-05-19T15:14:32.985Z,100088.81
2023-05-19T15:17:00.038Z,100082.48
2023-05-19T15:19:27.289Z,100083.81
2023-05-19T15:21:54.428Z,100085.64
2023-05-19T15:24:21.542Z,100098.78
2023-05-19T15:26:48.825Z,100099.95
2023-05-19T15:29:15.936Z,100098.86
2023-05-19T15:31:43.141Z,100090.15
2023-05-19T15:34:10.401Z,100097.34
2023-05-19T15:36:37.414Z,100104.55
2023-05-19T15:39:05.184Z,100104.02
2023-05-19T15:41:32.261Z,100104.21
2023-05-19T15:44:00.722Z,100106.07
2023-05-19T15:46:28.644Z,100103.89
2023-05-19T15:48:56.033Z,100106.40
2023-05-19T15:51:23.010Z,100110.84
2023-05-19T15:53:50.046Z,100112.64
2023-05-19T15:56:17.088Z,100105.91
2023-05-19T15:58:44.638Z,100104.46
2023-05-19T16:01:12.112Z,100109.45
2023-05-19T16:03:39.285Z,100107.42
2023-05-19T16:06:06.486Z,100106.01
2023-05-19T16:08:33.458Z,100105.73
2023-05-19T16:11:00.540Z,100105.93
2023-05-19T16:13:27.869Z,100108.05
2023-05-19T16:15:54.853Z,100105.66
2023-05-19T16:18:22.923Z,100102.82
2023-05-19T16:20:50.806Z,100097.02
2023-05-19T16:23:17.764Z,100090.55
2023-05-19T16:25:44.696Z,100094.06
2023-05-19T16:28:12.002Z,100083.91
2023-05-19T16:30:39.141Z,100075.60
2023-05-19T16:33:06.403Z,100073.11
2023-05-19T16:35:33.360Z,100070.59
2023-05-19T16:38:00.368Z,100066.52
2023-05-19T16:40:30.108Z,100063.55
2023-05-19T16:42:58.035Z,100063.17
2023-05-19T16:45:26.582Z,100066.23
2023-05-19T16:47:53.816Z,100068.34
2023-05-19T16:50:20.964Z,100063.64
2023-05-19T16:52:47.906Z,100073.33
2023-05-19T16:55:19.906Z,100087.20
2023-05-19T16:57:47.386Z,100094.37
2023-05-19T17:00:15.066Z,100090.09
2023-05-19T17:02:42.209Z,100091.17
2023-05-19T17:05:09.340Z,100081.48
2023-05-19T17:07:36.372Z,100075.44
2023-05-19T17:10:03.538Z,100072.98
2023-05-19T17:12:30.680Z,100065.91
2023-05-19T17:14:57.632Z,100068.67
2023-05-19T17:17:24.673Z,100067.35
2023-05-19T17:19:52.261Z,100066.64
2023-05-19T17:22:19.591Z,100071.67
2023-05-19T17:24:47.656Z,100072.45
2023-05-19T17:27:15.274Z,100072.39
2023-05-19T17:29:42.512Z,100070.87
2023-05-19T17:32:09.592Z,100079.22
2023-05-19T17:34:36.767Z,100074.67
2023-05-19T17:37:04.050Z,100069.63
2023-05-19T17:39:31.265Z,100071.23
2023-05-19T17:41:58.329Z,100070.98
2023-05-19T17:44:25.324Z,100070.40
2023-05-19T17:46:52.775Z,100074.39
2023-05-19T17:49:20.217Z,100081.29
2023-05-19T17:51:47.388Z,100092.33
2023-05-19T17:54:14.793Z,100107.43
2023-05-19T17:56:43.130Z,100111.98
2023-05-19T17:59:10.739Z,100117.65
2023-05-19T18:01:38.338Z,100118.85
2023-05-19T18:04:06.081Z,100121.23
2023-05-19T18:06:33.475Z,100120.76
2023-05-19T18:09:01.396Z,100119.30
2023-05-19T18:11:29.276Z,100120.22
2023-05-19T18:13:57.534Z,100105.32
2023-05-19T18:16:25.869Z,100106.92
2023-05-19T18:18:53.128Z,100102.48
2023-05-19T18:21:20.120Z,100105.79
2023-05-19T18:23:48.037Z,100101.81
2023-05-19T18:26:15.453Z,100101.02
2023-05-19T18:28:44.102Z,100108.47
2023-05-19T18:31:17.602Z,100114.68
2023-05-19T18:33:48.108Z,100109.04
2023-05-19T18:36:16.871Z,100110.73
2023-05-19T18:38:44.047Z,100111.75
2023-05-19T18:41:10.952Z,100112.41
2023-05-19T18:43:39.031Z,100114.74
2023-05-19T18:46:06.329Z,100117.54
2023-05-19T18:48:33.577Z,100117.94
2023-05-19T18:51:00.697Z,100124.02
2023-05-19T18:53:27.701Z,100136.77
2023-05-19T18:55:54.824Z,100140.84
2023-05-19T18:58:22.197Z,100143.36
2023-05-19T19:00:49.269Z,100123.04
2023-05-19T19:03:16.428Z,100118.91
2023-05-19T19:05:44.366Z,100118.94
2023-05-19T19:08:11.414Z,100121.04
2023-05-19T19:10:40.782Z,100121.52
2023-05-19T19:13:07.802Z,100132.32
2023-05-19T19:15:35.103Z,100143.20
2023-05-19T19:18:02.519Z,100148.83
2023-05-19T19:20:29.952Z,100154.25
2023-05-19T19:22:58.909Z,100158.80
2023-05-19T19:25:25.876Z,100154.17
2023-05-19T19:27:52.909Z,100157.44
2023-05-19T19:30:20.018Z,100153.39
2023-05-19T19:32:47.130Z,100151.61
2023-05-19T19:35:14.241Z,100149.88
2023-05-19T19:37:41.260Z,100152.45
2023-05-19T19:40:09.773Z,100145.38
2023-05-19T19:42:38.596Z,100139.66
2023-05-19T19:45:06.792Z,100140.22
2023-05-19T19:47:33.959Z,100143.66
2023-05-19T19:50:02.851Z,100146.39
2023-05-19T19:52:29.894Z,100147.96
2023-05-19T19:54:57.428Z,100142.84
2023-05-19T19:57:24.706Z,100146.07
2023-05-19T19:59:55.365Z,100147.65
2023-05-19T20:02:22.800Z,100138.02
2023-05-19T20:04:49.967Z,100144.39
2023-05-19T20:07:19.756Z,100143.67
2023-05-19T20:09:47.186Z,100146.29
2023-05-19T20:12:14.250Z,100151.94
2023-05-19T20:14:41.280Z,100149.77
2023-05-19T20:17:09.326Z,100152.92
2023-05-19T20:19:36.413Z,100149.83
2023-05-19T20:22:03.567Z,100155.15
2023-05-19T20:24:30.481Z,100159.67
2023-05-19T20:26:57.473Z,100156.58
2023-05-19T20:29:24.530Z,100160.88
2023-05-19T20:31:51.653Z,100151.02
2023-05-19T20:34:18.726Z,100151.92
2023-05-19T20:36:45.772Z,100156.30
2023-05-19T20:39:12.996Z,100156.20
2023-05-19T20:41:40.030Z,100159.66
2023-05-19T20:44:08.628Z,100158.95
2023-05-19T20:46:35.910Z,100159.35
2023-05-19T20:49:03.333Z,100152.73
2023-05-19T20:51:30.348Z,100137.27
2023-05-19T20:53:57.333Z,100136.30
2023-05-19T20:56:24.275Z,100140.48
2023-05-19T20:58:51.389Z,100146.34
2023-05-19T21:01:18.419Z,100136.98
2023-05-19T21:03:45.517Z,100134.87
2023-05-19T21:06:12.517Z,100143.11
2023-05-19T21:08:39.509Z,100145.23
2023-05-19T21:11:06.655Z,100139.28
2023-05-19T21:13:33.965Z,100136.46
2023-05-19T21:16:01.343Z,100136.60
2023-05-19T21:18:28.921Z,100135.41
2023-05-19T21:20:56.757Z,100136.06
2023-05-19T21:23:23.728Z,100148.44
2023-05-19T21:25:50.821Z,100153.79
2023-05-19T21:28:17.934Z,100146.30
2023-05-19T21:30:49.213Z,100144.72
2023-05-19T21:33:17.400Z,100152.64
2023-05-19T21:35:45.689Z,100158.25
2023-05-19T21:38:23.407Z,100163.43
2023-05-19T21:40:52.660Z,100164.48
2023-05-19T21:43:19.687Z,100168.92
2023-05-19T21:45:46.619Z,100166.20
2023-05-19T21:48:13.614Z,100168.48
2023-05-19T21:50:40.752Z,100176.23
2023-05-19T21:53:08.103Z,100174.14
2023-05-19T21:55:35.248Z,100179.16
2023-05-19T21:58:02.702Z,100180.63
2023-05-19T22:00:30.050Z,100166.41
2023-05-19T22:02:57.163Z,100163.86
2023-05-19T22:05:24.416Z,100165.60
2023-05-19T22:07:51.370Z,100152.93
2023-05-19T22:10:18.408Z,100149.60
2023-05-19T22:12:45.462Z,100160.84
2023-05-19T22:15:13.606Z,100167.62
2023-05-19T22:17:40.811Z,100172.17
2023-05-19T22:20:08.694Z,100175.98
2023-05-19T22:22:35.710Z,100176.77
2023-05-19T22:25:03.093Z,100178.80
2023-05-19T22:27:30.092Z,100162.14
2023-05-19T22:29:57.431Z,100156.56
2023-05-19T22:32:24.440Z,100153.30
2023-05-19T22:34:51.766Z,100163.11
2023-05-19T22:37:19.021Z,100171.61
2023-05-19T22:39:46.194Z,100167.00
2023-05-19T22:42:13.147Z,100172.38
2023-05-19T22:44:40.173Z,100164.10
2023-05-19T22:47:13.360Z,100166.73
2023-05-19T22:49:43.580Z,100174.02
2023-05-19T22:52:10.947Z,100177.52
2023-05-19T22:54:38.156Z,100170.94
2023-05-19T22:57:05.982Z,100169.37
2023-05-19T22:59:32.990Z,100179.08
2023-05-19T23:02:00.140Z,100181.54
2023-05-19T23:04:27.382Z,100180.42
2023-05-19T23:06:54.512Z,100184.27
2023-05-19T23:09:22.058Z,100177.38
2023-05-19T23:11:49.462Z,100167.45
2023-05-19T23:14:16.544Z,100172.79
2023-05-19T23:16:43.554Z,100179.79
2023-05-19T23:19:10.623Z,100184.63
2023-05-19T23:21:38.212Z,100183.12
2023-05-19T23:24:06.628Z,100182.09
2023-05-19T23:26:33.755Z,100176.71
2023-05-19T23:29:00.829Z,100175.48
2023-05-19T23:31:27.800Z,100174.27
2023-05-19T23:33:54.874Z,100181.38
2023-05-19T23:36:23.268Z,100172.04
2023-05-19T23:38:50.368Z,100177.92
2023-05-19T23:41:17.368Z,100168.17
2023-05-19T23:43:44.282Z,100156.75
2023-05-19T23:46:11.456Z,100156.23
2023-05-19T23:48:39.509Z,100157.52
2023-05-19T23:51:06.686Z,100175.16
2023-05-19T23:53:33.692Z,100181.89
2023-05-19T23:56:00.635Z,100182.85
2023-05-19T23:58:27.565Z,100183.96
